createdAt,value
2017-12-15T00:00:33.724Z,0
2017-12-15T00:01:33.998Z,0
2017-12-15T00:02:34.050Z,0
2017-12-15T00:03:33.790Z,0
2017-12-15T00:04:48.748Z,0
2017-12-15T00:05:34.042Z,0
2017-12-15T00:06:34.087Z,0
2017-12-15T00:07:34.080Z,0
2017-12-15T00:08:34.119Z,0
2017-12-15T00:09:34.098Z,0
2017-12-15T00:10:34.155Z,0
2017-12-15T00:11:33.902Z,0
2017-12-15T00:12:48.858Z,0
2017-12-15T00:13:34.167Z,0
2017-12-15T00:14:34.232Z,0
2017-12-15T00:15:34.202Z,0
2017-12-15T00:16:34.240Z,0
2017-12-15T00:17:33.974Z,0
2017-12-15T00:18:48.673Z,0
2017-12-15T00:19:34.294Z,0
2017-12-15T00:20:34.296Z,0
2017-12-15T00:21:34.310Z,0
2017-12-15T00:22:34.349Z,0
2017-12-15T00:23:34.347Z,0
2017-12-15T00:24:34.328Z,0
2017-12-15T00:25:34.345Z,0
2017-12-15T00:26:34.134Z,0
2017-12-15T00:27:34.409Z,0
2017-12-15T00:28:34.442Z,0
2017-12-15T00:29:34.416Z,0
2017-12-15T00:30:34.439Z,0
2017-12-15T00:31:34.206Z,0
2017-12-15T00:32:34.480Z,0
2017-12-15T00:33:34.465Z,0
2017-12-15T00:34:49.237Z,0
2017-12-15T00:35:34.521Z,0
2017-12-15T00:36:34.550Z,0
2017-12-15T00:38:34.607Z,0
2017-12-15T00:40:34.568Z,0
2017-12-15T00:41:34.332Z,0
2017-12-15T00:42:34.646Z,0
2017-12-15T00:43:34.391Z,0
2017-12-15T00:44:49.345Z,0
2017-12-15T00:45:34.688Z,0
2017-12-15T00:46:34.713Z,0
2017-12-15T00:47:49.372Z,0
2017-12-15T00:48:49.360Z,0
2017-12-15T00:50:49.433Z,0
2017-12-15T00:51:34.743Z,0
2017-12-15T00:52:34.777Z,0
2017-12-15T00:53:34.817Z,0
2017-12-15T00:54:34.797Z,0
2017-12-15T00:55:34.590Z,0
2017-12-15T00:56:34.829Z,0
2017-12-15T00:57:34.612Z,0
2017-12-15T00:58:34.848Z,0
2017-12-15T00:59:34.898Z,0
2017-12-15T01:00:34.970Z,0
2017-12-15T01:01:34.921Z,0
2017-12-15T01:02:34.954Z,0
2017-12-15T01:03:34.949Z,0
2017-12-15T01:04:35.029Z,0
2017-12-15T01:05:35.007Z,0
2017-12-15T01:06:49.398Z,0
2017-12-15T01:07:35.018Z,0
2017-12-15T01:08:34.782Z,0
2017-12-15T01:09:34.765Z,0
2017-12-15T01:10:34.823Z,0
2017-12-15T01:11:35.085Z,0
2017-12-15T01:12:35.067Z,0
2017-12-15T01:13:35.106Z,0
2017-12-15T01:14:35.140Z,0
2017-12-15T01:15:35.160Z,0
2017-12-15T01:16:34.915Z,0
2017-12-15T01:17:34.936Z,0
2017-12-15T01:18:34.928Z,0
2017-12-15T01:19:35.205Z,0
2017-12-15T01:20:35.202Z,0
2017-12-15T01:21:49.891Z,0
2017-12-15T01:22:35.251Z,0
2017-12-15T01:23:35.264Z,0
2017-12-15T01:24:35.283Z,0
2017-12-15T01:25:35.274Z,0
2017-12-15T01:26:35.299Z,0
2017-12-15T01:27:35.317Z,0
2017-12-15T01:28:35.078Z,0
2017-12-15T01:29:35.371Z,0
2017-12-15T01:30:35.114Z,0
2017-12-15T01:31:35.125Z,0
2017-12-15T01:32:35.130Z,0
2017-12-15T01:34:35.458Z,0
2017-12-15T01:35:35.441Z,0
2017-12-15T01:36:50.130Z,0
2017-12-15T01:37:35.461Z,0
2017-12-15T01:39:35.519Z,0
2017-12-15T01:40:35.510Z,0
2017-12-15T01:41:35.263Z,0
2017-12-15T01:42:35.280Z,0
2017-12-15T01:43:35.538Z,0
2017-12-15T01:44:35.592Z,0
2017-12-15T01:45:35.610Z,0
2017-12-15T01:46:35.583Z,0
2017-12-15T01:47:35.588Z,0
2017-12-15T01:48:35.626Z,0
2017-12-15T01:49:35.705Z,0
2017-12-15T01:50:35.666Z,0
2017-12-15T01:51:35.691Z,0
2017-12-15T01:52:35.684Z,0
2017-12-15T01:53:50.114Z,0
2017-12-15T01:54:50.363Z,0
2017-12-15T01:55:35.718Z,0
2017-12-15T01:56:35.760Z,0
2017-12-15T01:57:35.760Z,0
2017-12-15T01:58:35.770Z,0
2017-12-15T01:59:35.540Z,0
2017-12-15T02:00:35.821Z,0
2017-12-15T02:01:50.512Z,0
2017-12-15T02:02:35.830Z,0
2017-12-15T02:03:50.546Z,0
2017-12-15T02:04:35.860Z,0
2017-12-15T02:05:35.884Z,0
2017-12-15T02:06:35.872Z,0
2017-12-15T02:08:35.924Z,0
2017-12-15T02:09:50.095Z,0
2017-12-15T02:10:35.983Z,0
2017-12-15T02:11:35.972Z,0
2017-12-15T02:12:35.962Z,0
2017-12-15T02:13:35.999Z,0
2017-12-15T02:14:36.001Z,0
2017-12-15T02:15:35.998Z,0
2017-12-15T02:16:36.038Z,0
2017-12-15T02:17:35.826Z,0
2017-12-15T02:18:36.079Z,0
2017-12-15T02:19:35.579Z,0
2017-12-15T02:20:36.121Z,0
2017-12-15T02:21:35.892Z,0
2017-12-15T02:22:50.811Z,0
2017-12-15T02:23:36.188Z,0
2017-12-15T02:24:36.155Z,0
2017-12-15T02:25:50.837Z,0
2017-12-15T02:27:36.246Z,0
2017-12-15T02:28:36.210Z,0
2017-12-15T02:29:36.306Z,0
2017-12-15T02:30:36.232Z,0
2017-12-15T02:31:36.270Z,0
2017-12-15T02:32:36.283Z,0
2017-12-15T02:33:36.299Z,0
2017-12-15T02:34:36.345Z,0
2017-12-15T02:35:36.054Z,0
2017-12-15T02:36:36.329Z,0
2017-12-15T02:37:50.997Z,0
2017-12-15T02:38:36.365Z,0
2017-12-15T02:40:36.393Z,0
2017-12-15T02:41:51.093Z,0
2017-12-15T02:42:51.067Z,0
2017-12-15T02:44:36.464Z,0
2017-12-15T02:45:36.468Z,0
2017-12-15T02:46:36.473Z,0
2017-12-15T02:47:36.510Z,0
2017-12-15T02:48:36.232Z,0
2017-12-15T02:49:36.493Z,0
2017-12-15T02:50:36.546Z,0
2017-12-15T02:51:36.288Z,0
2017-12-15T02:52:36.578Z,0
2017-12-15T02:53:36.566Z,0
2017-12-15T02:54:36.691Z,0
2017-12-15T02:55:36.630Z,0
2017-12-15T02:56:51.286Z,0
2017-12-15T02:57:36.678Z,0
2017-12-15T02:58:36.645Z,0
2017-12-15T02:59:51.355Z,0
2017-12-15T03:00:51.358Z,0
2017-12-15T03:01:36.714Z,0
2017-12-15T03:02:36.718Z,0
2017-12-15T03:03:36.730Z,0
2017-12-15T03:04:36.731Z,0
2017-12-15T03:05:36.735Z,0
2017-12-15T03:06:51.437Z,0
2017-12-15T03:07:51.420Z,0
2017-12-15T03:08:51.447Z,0
2017-12-15T03:09:36.817Z,0
2017-12-15T03:10:36.815Z,0
2017-12-15T03:11:36.576Z,0
2017-12-15T03:12:36.812Z,0
2017-12-15T03:13:36.841Z,0
2017-12-15T03:14:36.908Z,0
2017-12-15T03:15:36.642Z,0
2017-12-15T03:16:36.911Z,0
2017-12-15T03:17:36.910Z,0
2017-12-15T03:18:36.943Z,0
2017-12-15T03:19:36.955Z,0
2017-12-15T03:20:36.934Z,0
2017-12-15T03:21:36.717Z,0
2017-12-15T03:22:36.997Z,0
2017-12-15T03:23:36.993Z,0
2017-12-15T03:24:37.026Z,0
2017-12-15T03:25:37.034Z,0
2017-12-15T03:26:51.447Z,0
2017-12-15T03:27:37.056Z,0
2017-12-15T03:28:51.728Z,0
2017-12-15T03:29:36.805Z,0
2017-12-15T03:30:37.111Z,0
2017-12-15T03:31:37.096Z,0
2017-12-15T03:33:37.168Z,0
2017-12-15T03:34:37.147Z,0
2017-12-15T03:35:37.176Z,0
2017-12-15T03:36:37.176Z,0
2017-12-15T03:37:37.208Z,0
2017-12-15T03:38:37.186Z,0
2017-12-15T03:39:37.232Z,0
2017-12-15T03:40:37.254Z,0
2017-12-15T03:41:37.243Z,0
2017-12-15T03:42:51.947Z,0
2017-12-15T03:43:51.951Z,0
2017-12-15T03:44:51.957Z,0
2017-12-15T03:45:37.325Z,0
2017-12-15T03:46:37.079Z,0
2017-12-15T03:47:37.342Z,0
2017-12-15T03:48:37.340Z,0
2017-12-15T03:49:37.356Z,0
2017-12-15T03:50:37.341Z,0
2017-12-15T03:51:37.372Z,0
2017-12-15T03:53:37.410Z,0
2017-12-15T03:54:37.172Z,0
2017-12-15T03:55:37.159Z,0
2017-12-15T03:56:37.229Z,0
2017-12-15T03:57:37.194Z,0
2017-12-15T03:59:37.243Z,0
2017-12-15T04:00:52.179Z,0
2017-12-15T04:01:52.196Z,0
2017-12-15T04:02:52.219Z,0
2017-12-15T04:03:37.068Z,0
2017-12-15T04:04:37.324Z,0
2017-12-15T04:05:37.574Z,0
2017-12-15T04:06:37.583Z,0
2017-12-15T04:07:37.611Z,0
2017-12-15T04:08:52.273Z,0
2017-12-15T04:09:37.729Z,0
2017-12-15T04:10:52.327Z,0
2017-12-15T04:11:37.667Z,0
2017-12-15T04:12:37.692Z,0
2017-12-15T04:13:37.686Z,0
2017-12-15T04:14:37.693Z,0
2017-12-15T04:15:37.722Z,0
2017-12-15T04:16:52.434Z,0
2017-12-15T04:17:37.746Z,0
2017-12-15T04:18:37.774Z,0
2017-12-15T04:19:37.876Z,0
2017-12-15T04:20:37.777Z,0
2017-12-15T04:21:52.445Z,0
2017-12-15T04:22:52.487Z,0
2017-12-15T04:24:37.598Z,0
2017-12-15T04:25:37.873Z,0
2017-12-15T04:26:37.857Z,0
2017-12-15T04:27:52.537Z,0
2017-12-15T04:28:37.974Z,0
2017-12-15T04:29:37.897Z,0
2017-12-15T04:30:37.682Z,0
2017-12-15T04:32:07.287Z,0
2017-12-15T04:32:52.385Z,0
2017-12-15T04:33:37.738Z,0
2017-12-15T04:34:37.488Z,0
2017-12-15T04:35:37.997Z,0
2017-12-15T04:36:37.989Z,0
2017-12-15T04:37:37.772Z,0
2017-12-15T04:38:52.718Z,0
2017-12-15T04:39:38.054Z,0
2017-12-15T04:40:37.806Z,0
2017-12-15T04:41:38.062Z,0
2017-12-15T04:42:38.091Z,0
2017-12-15T04:43:38.102Z,0
2017-12-15T04:44:38.110Z,0
2017-12-15T04:45:38.162Z,0
2017-12-15T04:46:38.173Z,0
2017-12-15T04:47:38.168Z,0
2017-12-15T04:48:37.906Z,0
2017-12-15T04:49:38.179Z,0
2017-12-15T04:50:52.621Z,0
2017-12-15T04:51:38.174Z,0
2017-12-15T04:53:38.264Z,0
2017-12-15T04:54:38.007Z,0
2017-12-15T04:55:37.766Z,0
2017-12-15T04:56:52.963Z,0
2017-12-15T04:57:38.337Z,0
2017-12-15T04:58:38.303Z,0
2017-12-15T04:59:38.308Z,0
2017-12-15T05:00:38.324Z,0
2017-12-15T05:01:53.026Z,0
2017-12-15T05:02:53.028Z,0
2017-12-15T05:03:53.047Z,0
2017-12-15T05:04:38.416Z,0
2017-12-15T05:05:38.395Z,0
2017-12-15T05:07:38.191Z,0
2017-12-15T05:08:38.484Z,0
2017-12-15T05:09:38.469Z,0
2017-12-15T05:10:38.464Z,0
2017-12-15T05:11:38.556Z,0
2017-12-15T05:12:38.513Z,0
2017-12-15T05:13:38.520Z,0
2017-12-15T05:14:38.580Z,0
2017-12-15T05:15:38.565Z,0
2017-12-15T05:16:38.284Z,0
2017-12-15T05:17:38.598Z,0
2017-12-15T05:18:38.597Z,0
2017-12-15T05:19:53.249Z,0
2017-12-15T05:20:38.611Z,0
2017-12-15T05:21:38.651Z,0
2017-12-15T05:22:38.605Z,0
2017-12-15T05:23:53.297Z,0
2017-12-15T05:26:38.693Z,0
2017-12-15T05:27:38.693Z,0
2017-12-15T05:28:38.758Z,0
2017-12-15T05:29:38.745Z,0
2017-12-15T05:30:38.494Z,0
2017-12-15T05:31:38.781Z,0
2017-12-15T05:32:38.776Z,0
2017-12-15T05:33:38.782Z,0
2017-12-15T05:34:38.835Z,0
2017-12-15T05:35:53.478Z,0
2017-12-15T05:36:38.603Z,0
2017-12-15T05:37:38.853Z,0
2017-12-15T05:39:38.859Z,0
2017-12-15T05:40:38.871Z,0
2017-12-15T05:41:38.913Z,0
2017-12-15T05:42:38.922Z,0
2017-12-15T05:43:38.936Z,0
2017-12-15T05:44:38.946Z,0
2017-12-15T05:45:39.069Z,0
2017-12-15T05:46:38.749Z,0
2017-12-15T05:47:53.663Z,0
2017-12-15T05:48:39.007Z,0
2017-12-15T05:49:39.002Z,0
2017-12-15T05:50:38.996Z,0
2017-12-15T05:52:08.377Z,0
2017-12-15T05:52:39.062Z,0
2017-12-15T05:53:39.060Z,0
2017-12-15T05:54:53.730Z,0
2017-12-15T05:55:39.085Z,0
2017-12-15T05:56:39.081Z,0
2017-12-15T05:57:39.133Z,0
2017-12-15T05:58:39.169Z,0
2017-12-15T05:59:39.165Z,0
2017-12-15T06:00:53.855Z,0
2017-12-15T06:01:39.161Z,0
2017-12-15T06:02:53.879Z,0
2017-12-15T06:03:53.895Z,0
2017-12-15T06:04:39.218Z,0
2017-12-15T06:05:39.215Z,0
2017-12-15T06:06:53.939Z,0
2017-12-15T06:07:39.010Z,0
2017-12-15T06:08:53.946Z,0
2017-12-15T06:09:39.026Z,0
2017-12-15T06:10:39.051Z,0
2017-12-15T06:11:53.970Z,0
2017-12-15T06:13:39.382Z,0
2017-12-15T06:14:54.018Z,0
2017-12-15T06:15:39.382Z,0
2017-12-15T06:16:54.081Z,0
2017-12-15T06:17:39.408Z,0
2017-12-15T06:18:39.403Z,0
2017-12-15T06:19:39.395Z,0
2017-12-15T06:20:39.427Z,0
2017-12-15T06:21:39.437Z,0
2017-12-15T06:22:39.454Z,0
2017-12-15T06:23:39.439Z,0
2017-12-15T06:24:39.522Z,0
2017-12-15T06:25:39.498Z,0
2017-12-15T06:26:39.534Z,0
2017-12-15T06:27:39.569Z,0
2017-12-15T06:28:39.559Z,0
2017-12-15T06:29:39.530Z,0
2017-12-15T06:30:39.557Z,0
2017-12-15T06:31:39.560Z,0
2017-12-15T06:32:54.295Z,0
2017-12-15T06:33:39.585Z,0
2017-12-15T06:34:39.661Z,0
2017-12-15T06:35:39.676Z,0
2017-12-15T06:36:39.618Z,0
2017-12-15T06:37:39.662Z,0
2017-12-15T06:38:54.092Z,4
2017-12-15T06:40:39.692Z,4
2017-12-15T06:41:54.413Z,0
2017-12-15T06:42:39.770Z,4
2017-12-15T06:43:39.737Z,4
2017-12-15T06:45:39.770Z,4
2017-12-15T06:46:39.826Z,4
2017-12-15T06:47:39.800Z,8
2017-12-15T06:48:39.794Z,8
2017-12-15T06:49:39.594Z,12
2017-12-15T06:50:39.834Z,12
2017-12-15T06:51:39.911Z,12
2017-12-15T06:52:39.885Z,16
2017-12-15T06:53:39.629Z,20
2017-12-15T06:54:54.583Z,20
2017-12-15T06:55:39.936Z,24
2017-12-15T06:56:39.957Z,24
2017-12-15T06:57:39.962Z,32
2017-12-15T06:58:40.035Z,32
2017-12-15T07:00:39.740Z,40
2017-12-15T07:01:40.040Z,44
2017-12-15T07:02:39.798Z,48
2017-12-15T07:03:39.776Z,48
2017-12-15T07:04:40.031Z,56
2017-12-15T07:05:40.042Z,56
2017-12-15T07:06:40.066Z,64
2017-12-15T07:07:39.819Z,64
2017-12-15T07:08:40.075Z,68
2017-12-15T07:10:54.809Z,76
2017-12-15T07:11:40.620Z,80
2017-12-15T07:12:40.166Z,88
2017-12-15T07:13:40.150Z,96
2017-12-15T07:14:39.936Z,104
2017-12-15T07:15:40.179Z,112
2017-12-15T07:16:40.240Z,124
2017-12-15T07:17:40.216Z,128
2017-12-15T07:18:40.242Z,140
2017-12-15T07:19:40.261Z,152
2017-12-15T07:20:40.278Z,168
2017-12-15T07:21:40.249Z,188
2017-12-15T07:22:40.303Z,204
2017-12-15T07:23:40.294Z,220
2017-12-15T07:24:55.007Z,240
2017-12-15T07:25:40.353Z,248
2017-12-15T07:26:55.039Z,260
2017-12-15T07:27:40.403Z,268
2017-12-15T07:28:40.346Z,276
2017-12-15T07:29:40.425Z,288
2017-12-15T07:30:40.419Z,292
2017-12-15T07:31:40.149Z,304
2017-12-15T07:32:40.424Z,308
2017-12-15T07:33:55.115Z,312
2017-12-15T07:34:40.479Z,320
2017-12-15T07:35:40.491Z,344
2017-12-15T07:36:55.135Z,380
2017-12-15T07:37:40.502Z,404
2017-12-15T07:38:40.530Z,432
2017-12-15T07:39:40.635Z,452
2017-12-15T07:40:40.294Z,468
2017-12-15T07:41:55.250Z,472
2017-12-15T07:42:40.569Z,464
2017-12-15T07:43:40.622Z,444
2017-12-15T07:44:40.604Z,424
2017-12-15T07:45:40.624Z,404
2017-12-15T07:46:55.317Z,396
2017-12-15T07:47:40.372Z,400
2017-12-15T07:48:40.679Z,416
2017-12-15T07:49:40.682Z,436
2017-12-15T07:50:40.671Z,464
2017-12-15T07:51:40.695Z,492
2017-12-15T07:52:55.353Z,528
2017-12-15T07:53:40.746Z,544
2017-12-15T07:54:40.764Z,556
2017-12-15T07:55:40.728Z,564
2017-12-15T07:56:40.516Z,572
2017-12-15T07:58:40.541Z,600
2017-12-15T07:59:40.549Z,620
2017-12-15T08:00:40.811Z,632
2017-12-15T08:01:40.596Z,636
2017-12-15T08:02:40.878Z,636
2017-12-15T08:03:40.866Z,648
2017-12-15T08:04:40.909Z,664
2017-12-15T08:05:40.930Z,676
2017-12-15T08:06:40.922Z,688
2017-12-15T08:07:40.924Z,700
2017-12-15T08:08:40.975Z,708
2017-12-15T08:09:40.950Z,720
2017-12-15T08:10:40.959Z,740
2017-12-15T08:11:55.369Z,760
2017-12-15T08:12:40.717Z,776
2017-12-15T08:13:55.676Z,800
2017-12-15T08:14:41.045Z,816
2017-12-15T08:15:41.052Z,836
2017-12-15T08:16:41.048Z,856
2017-12-15T08:17:41.074Z,880
2017-12-15T08:18:41.061Z,916
2017-12-15T08:19:41.066Z,948
2017-12-15T08:20:41.102Z,984
2017-12-15T08:21:41.142Z,1024
2017-12-15T08:22:41.120Z,1064
2017-12-15T08:23:41.157Z,1092
2017-12-15T08:25:55.826Z,1144
2017-12-15T08:26:41.199Z,1168
2017-12-15T08:27:41.197Z,1200
2017-12-15T08:28:55.880Z,1232
2017-12-15T08:29:55.905Z,1252
2017-12-15T08:30:41.242Z,1256
2017-12-15T08:31:41.254Z,1248
2017-12-15T08:32:41.307Z,1240
2017-12-15T08:33:55.943Z,1236
2017-12-15T08:34:41.289Z,1244
2017-12-15T08:35:41.306Z,1276
2017-12-15T08:36:41.350Z,1308
2017-12-15T08:37:41.363Z,1360
2017-12-15T08:38:41.392Z,1408
2017-12-15T08:39:41.389Z,1460
2017-12-15T08:40:56.048Z,1504
2017-12-15T08:41:56.051Z,1532
2017-12-15T08:42:41.453Z,1544
2017-12-15T08:43:56.109Z,1556
2017-12-15T08:44:41.430Z,1556
2017-12-15T08:45:56.107Z,1576
2017-12-15T08:46:41.476Z,1592
2017-12-15T08:47:56.162Z,1632
2017-12-15T08:48:56.173Z,1664
2017-12-15T08:49:41.555Z,1684
2017-12-15T08:50:41.532Z,1688
2017-12-15T08:51:41.536Z,1680
2017-12-15T08:52:41.690Z,1656
2017-12-15T08:54:41.367Z,1596
2017-12-15T08:55:41.641Z,1624
2017-12-15T08:56:41.689Z,1692
2017-12-15T08:57:41.399Z,1740
2017-12-15T08:58:41.696Z,1784
2017-12-15T08:59:41.433Z,1812
2017-12-15T09:00:41.665Z,1836
2017-12-15T09:02:11.011Z,1800
2017-12-15T09:02:41.719Z,1740
2017-12-15T09:03:56.118Z,1528
2017-12-15T09:04:56.378Z,1432
2017-12-15T09:05:41.780Z,1408
2017-12-15T09:06:56.443Z,1480
2017-12-15T09:07:41.782Z,1596
2017-12-15T09:08:56.457Z,1816
2017-12-15T09:09:41.868Z,1932
2017-12-15T09:10:41.817Z,2056
2017-12-15T09:11:56.501Z,2092
2017-12-15T09:12:41.606Z,2040
2017-12-15T09:13:41.875Z,1960
2017-12-15T09:14:41.890Z,1956
2017-12-15T09:15:42.015Z,2028
2017-12-15T09:16:56.571Z,2156
2017-12-15T09:17:56.596Z,2264
2017-12-15T09:18:41.902Z,2336
2017-12-15T09:19:41.971Z,2428
2017-12-15T09:20:41.712Z,2516
2017-12-15T09:21:41.976Z,2596
2017-12-15T09:22:42.010Z,2628
2017-12-15T09:23:41.999Z,2584
2017-12-15T09:24:42.023Z,2424
2017-12-15T09:25:42.082Z,2200
2017-12-15T09:26:56.728Z,2032
2017-12-15T09:27:42.094Z,2016
2017-12-15T09:28:42.082Z,2076
2017-12-15T09:29:56.745Z,2240
2017-12-15T09:30:42.158Z,2344
2017-12-15T09:31:41.845Z,2492
2017-12-15T09:32:42.150Z,2592
2017-12-15T09:33:42.128Z,2636
2017-12-15T09:34:42.158Z,2636
2017-12-15T09:35:42.182Z,2552
2017-12-15T09:36:42.216Z,2416
2017-12-15T09:37:56.866Z,2252
2017-12-15T09:38:42.241Z,2192
2017-12-15T09:39:42.260Z,2136
2017-12-15T09:40:42.295Z,2108
2017-12-15T09:42:42.007Z,2212
2017-12-15T09:43:42.056Z,2312
2017-12-15T09:44:42.073Z,2392
2017-12-15T09:45:42.323Z,2420
2017-12-15T09:46:57.025Z,2384
2017-12-15T09:47:42.114Z,2304
2017-12-15T09:48:57.045Z,2116
2017-12-15T09:49:42.141Z,2024
2017-12-15T09:50:42.187Z,1964
2017-12-15T09:51:42.161Z,1904
2017-12-15T09:52:42.190Z,1796
2017-12-15T09:53:42.479Z,1668
2017-12-15T09:54:42.504Z,1528
2017-12-15T09:55:42.495Z,1412
2017-12-15T09:56:42.528Z,1340
2017-12-15T09:57:42.303Z,1336
2017-12-15T09:58:42.542Z,1384
2017-12-15T09:59:42.268Z,1472
2017-12-15T10:00:57.214Z,1580
2017-12-15T10:01:42.559Z,1596
2017-12-15T10:02:42.705Z,1588
2017-12-15T10:03:57.281Z,1572
2017-12-15T10:04:57.289Z,1544
2017-12-15T10:05:42.644Z,1516
2017-12-15T10:06:42.620Z,1524
2017-12-15T10:07:42.646Z,1548
2017-12-15T10:08:42.697Z,1552
2017-12-15T10:09:42.704Z,1536
2017-12-15T10:10:42.697Z,1484
2017-12-15T10:11:42.729Z,1404
2017-12-15T10:12:42.771Z,1340
2017-12-15T10:13:42.581Z,1304
2017-12-15T10:14:57.460Z,1296
2017-12-15T10:15:57.479Z,1320
2017-12-15T10:16:42.557Z,1332
2017-12-15T10:17:42.538Z,1336
2017-12-15T10:18:57.494Z,1316
2017-12-15T10:20:57.538Z,1344
2017-12-15T10:22:42.876Z,1412
2017-12-15T10:23:42.658Z,1452
2017-12-15T10:25:42.687Z,1436
2017-12-15T10:26:42.978Z,1404
2017-12-15T10:27:42.709Z,1384
2017-12-15T10:28:43.086Z,1372
2017-12-15T10:30:43.041Z,1412
2017-12-15T10:31:42.761Z,1456
2017-12-15T10:32:42.860Z,1500
2017-12-15T10:33:57.721Z,1556
2017-12-15T10:34:43.074Z,1592
2017-12-15T10:35:42.905Z,1668
2017-12-15T10:37:43.152Z,1852
2017-12-15T10:38:43.127Z,1944
2017-12-15T10:39:43.119Z,2000
2017-12-15T10:40:43.175Z,2024
2017-12-15T10:41:43.168Z,2032
2017-12-15T10:42:42.928Z,2096
2017-12-15T10:43:43.009Z,2192
2017-12-15T10:44:57.652Z,2276
2017-12-15T10:45:43.007Z,2356
2017-12-15T10:46:43.248Z,2420
2017-12-15T10:47:43.264Z,2432
2017-12-15T10:48:43.286Z,2444
2017-12-15T10:49:43.307Z,2436
2017-12-15T10:50:43.371Z,2388
2017-12-15T10:51:57.997Z,2404
2017-12-15T10:52:43.101Z,2400
2017-12-15T10:53:43.152Z,2368
2017-12-15T10:54:43.351Z,2332
2017-12-15T10:55:43.383Z,2324
2017-12-15T10:56:43.403Z,2320
2017-12-15T10:57:43.419Z,2308
2017-12-15T10:58:43.456Z,2292
2017-12-15T10:59:43.474Z,2280
2017-12-15T11:00:58.164Z,2260
2017-12-15T11:02:43.228Z,2292
2017-12-15T11:03:58.199Z,2348
2017-12-15T11:04:43.525Z,2360
2017-12-15T11:05:43.580Z,2372
2017-12-15T11:06:43.582Z,2368
2017-12-15T11:07:58.238Z,2364
2017-12-15T11:08:43.608Z,2312
2017-12-15T11:09:43.343Z,2280
2017-12-15T11:10:43.625Z,2240
2017-12-15T11:12:43.667Z,2068
2017-12-15T11:13:43.408Z,2040
2017-12-15T11:14:43.700Z,2000
2017-12-15T11:15:43.738Z,1976
2017-12-15T11:16:43.704Z,2004
2017-12-15T11:17:43.749Z,2004
2017-12-15T11:18:43.737Z,1964
2017-12-15T11:19:43.739Z,1932
2017-12-15T11:20:43.528Z,1980
2017-12-15T11:21:43.758Z,2004
2017-12-15T11:22:43.780Z,2060
2017-12-15T11:23:58.473Z,2040
2017-12-15T11:24:43.861Z,1964
2017-12-15T11:25:43.602Z,1932
2017-12-15T11:26:58.281Z,1920
2017-12-15T11:27:43.604Z,1960
2017-12-15T11:28:43.921Z,1892
2017-12-15T11:29:43.668Z,1852
2017-12-15T11:30:43.917Z,1828
2017-12-15T11:31:43.956Z,1780
2017-12-15T11:32:43.723Z,1720
2017-12-15T11:33:43.735Z,1624
2017-12-15T11:34:43.762Z,1568
2017-12-15T11:35:43.730Z,1540
2017-12-15T11:36:43.756Z,1488
2017-12-15T11:37:58.714Z,1432
2017-12-15T11:38:44.061Z,1388
2017-12-15T11:39:58.743Z,1392
2017-12-15T11:40:44.072Z,1376
2017-12-15T11:41:44.179Z,1336
2017-12-15T11:42:44.087Z,1280
2017-12-15T11:43:43.888Z,1284
2017-12-15T11:44:44.157Z,1296
2017-12-15T11:45:44.183Z,1288
2017-12-15T11:47:44.201Z,1228
2017-12-15T11:48:44.239Z,1184
2017-12-15T11:49:44.197Z,1184
2017-12-15T11:50:43.988Z,1152
2017-12-15T11:51:43.972Z,1132
2017-12-15T11:52:44.314Z,1108
2017-12-15T11:53:44.293Z,1088
2017-12-15T11:55:58.999Z,1044
2017-12-15T11:56:44.297Z,1044
2017-12-15T11:57:44.348Z,1040
2017-12-15T11:58:44.347Z,1048
2017-12-15T11:59:44.093Z,1040
2017-12-15T12:00:44.171Z,1028
2017-12-15T12:01:44.423Z,992
2017-12-15T12:02:44.427Z,1000
2017-12-15T12:03:44.428Z,988
2017-12-15T12:04:44.458Z,976
2017-12-15T12:05:44.463Z,1012
2017-12-15T12:06:44.243Z,1020
2017-12-15T12:07:59.179Z,1064
2017-12-15T12:08:44.531Z,1092
2017-12-15T12:09:44.551Z,1036
2017-12-15T12:11:58.988Z,968
2017-12-15T12:12:44.639Z,940
2017-12-15T12:13:59.281Z,900
2017-12-15T12:14:44.599Z,884
2017-12-15T12:15:44.614Z,916
2017-12-15T12:16:44.634Z,896
2017-12-15T12:17:44.668Z,856
2017-12-15T12:18:44.739Z,820
2017-12-15T12:19:44.696Z,764
2017-12-15T12:20:44.682Z,736
2017-12-15T12:21:44.470Z,712
2017-12-15T12:22:44.209Z,708
2017-12-15T12:23:44.749Z,700
2017-12-15T12:24:44.794Z,688
2017-12-15T12:25:44.815Z,684
2017-12-15T12:26:59.206Z,664
2017-12-15T12:27:44.550Z,656
2017-12-15T12:28:59.495Z,600
2017-12-15T12:29:44.917Z,576
2017-12-15T12:30:44.822Z,584
2017-12-15T12:31:44.596Z,576
2017-12-15T12:33:44.919Z,556
2017-12-15T12:34:59.327Z,580
2017-12-15T12:35:59.579Z,616
2017-12-15T12:36:44.938Z,612
2017-12-15T12:37:44.931Z,612
2017-12-15T12:38:44.724Z,604
2017-12-15T12:39:45.004Z,596
2017-12-15T12:40:44.736Z,604
2017-12-15T12:41:44.851Z,540
2017-12-15T12:42:45.051Z,508
2017-12-15T12:43:45.070Z,496
2017-12-15T12:44:59.747Z,484
2017-12-15T12:45:44.585Z,460
2017-12-15T12:46:44.845Z,420
2017-12-15T12:48:45.124Z,400
2017-12-15T12:50:45.138Z,388
2017-12-15T12:51:59.863Z,404
2017-12-15T12:52:45.200Z,416
2017-12-15T12:53:45.222Z,436
2017-12-15T12:55:45.233Z,508
2017-12-15T12:56:45.266Z,560
2017-12-15T12:57:59.936Z,572
2017-12-15T12:58:59.964Z,576
2017-12-15T12:59:45.015Z,564
2017-12-15T13:00:45.303Z,620
2017-12-15T13:01:45.316Z,652
2017-12-15T13:02:45.355Z,652
2017-12-15T13:03:44.851Z,700
2017-12-15T13:04:45.410Z,700
2017-12-15T13:05:45.124Z,744
2017-12-15T13:06:45.397Z,744
2017-12-15T13:07:45.157Z,760
2017-12-15T13:09:00.122Z,800
2017-12-15T13:09:45.205Z,804
2017-12-15T13:10:45.478Z,776
2017-12-15T13:12:00.146Z,796
2017-12-15T13:12:45.232Z,812
2017-12-15T13:13:45.510Z,852
2017-12-15T13:14:59.914Z,868
2017-12-15T13:16:45.556Z,892
2017-12-15T13:17:45.581Z,916
2017-12-15T13:18:45.603Z,952
2017-12-15T13:19:45.611Z,1044
2017-12-15T13:20:45.654Z,1056
2017-12-15T13:21:45.118Z,996
2017-12-15T13:22:45.660Z,908
2017-12-15T13:24:00.074Z,880
2017-12-15T13:25:00.431Z,836
2017-12-15T13:25:45.445Z,808
2017-12-15T13:26:45.676Z,824
2017-12-15T13:27:45.465Z,908
2017-12-15T13:28:45.477Z,936
2017-12-15T13:29:45.515Z,952
2017-12-15T13:31:00.433Z,908
2017-12-15T13:31:45.513Z,828
2017-12-15T13:32:45.794Z,748
2017-12-15T13:33:45.783Z,652
2017-12-15T13:34:45.836Z,576
2017-12-15T13:36:00.255Z,540
2017-12-15T13:36:45.838Z,520
2017-12-15T13:37:45.865Z,520
2017-12-15T13:38:45.632Z,488
2017-12-15T13:39:45.663Z,488
2017-12-15T13:40:45.879Z,476
2017-12-15T13:42:00.578Z,476
2017-12-15T13:42:45.952Z,464
2017-12-15T13:44:00.353Z,440
2017-12-15T13:44:45.998Z,428
2017-12-15T13:45:45.998Z,420
2017-12-15T13:47:46.035Z,364
2017-12-15T13:48:45.758Z,380
2017-12-15T13:49:45.788Z,376
2017-12-15T13:50:45.907Z,372
2017-12-15T13:51:46.074Z,332
2017-12-15T13:52:46.078Z,304
2017-12-15T13:53:46.114Z,340
2017-12-15T13:55:46.165Z,324
2017-12-15T13:56:46.159Z,332
2017-12-15T13:58:00.565Z,308
2017-12-15T13:59:00.868Z,284
2017-12-15T13:59:46.202Z,276
2017-12-15T14:00:46.220Z,280
2017-12-15T14:02:00.896Z,292
2017-12-15T14:03:46.004Z,316
2017-12-15T14:04:46.269Z,324
2017-12-15T14:05:46.273Z,308
2017-12-15T14:06:46.272Z,304
2017-12-15T14:07:46.313Z,312
2017-12-15T14:08:46.358Z,296
2017-12-15T14:09:46.098Z,296
2017-12-15T14:10:46.384Z,288
2017-12-15T14:11:46.363Z,288
2017-12-15T14:12:46.415Z,276
2017-12-15T14:14:46.423Z,352
2017-12-15T14:15:46.446Z,320
2017-12-15T14:16:46.206Z,304
2017-12-15T14:17:46.226Z,320
2017-12-15T14:18:46.473Z,300
2017-12-15T14:19:46.512Z,268
2017-12-15T14:22:01.179Z,296
2017-12-15T14:22:46.520Z,256
2017-12-15T14:23:46.539Z,220
2017-12-15T14:24:46.608Z,208
2017-12-15T14:26:46.634Z,196
2017-12-15T14:27:46.602Z,212
2017-12-15T14:29:46.653Z,208
2017-12-15T14:30:46.751Z,184
2017-12-15T14:31:46.682Z,168
2017-12-15T14:32:46.687Z,160
2017-12-15T14:34:01.371Z,152
2017-12-15T14:34:46.196Z,144
2017-12-15T14:35:46.751Z,148
2017-12-15T14:36:46.728Z,128
2017-12-15T14:37:46.775Z,120
2017-12-15T14:38:46.800Z,100
2017-12-15T14:39:46.774Z,80
2017-12-15T14:40:46.808Z,72
2017-12-15T14:41:46.849Z,68
2017-12-15T14:42:46.568Z,64
2017-12-15T14:43:46.882Z,52
2017-12-15T14:45:01.551Z,48
2017-12-15T14:45:46.865Z,44
2017-12-15T14:46:47.028Z,48
2017-12-15T14:47:46.922Z,40
2017-12-15T14:48:59.092Z,40
2017-12-15T14:50:01.584Z,40
2017-12-15T14:50:46.772Z,40
2017-12-15T14:51:46.712Z,36
2017-12-15T14:52:46.991Z,36
2017-12-15T14:53:47.011Z,36
2017-12-15T14:54:47.007Z,32
2017-12-15T14:55:47.017Z,28